Time;durP1;ratioP1;P1;durP2;ratioP2;P2;SDS_P1;SDS_P2;PMS_P1;PMS_P2;Temp;Humidity;BMP_temperature;BMP_pressure;BME280_temperature;BME280_humidity;BME280_pressure;Samples;Min_cycle;Max_cycle;Signal;HPM_P1;HPM_P2
2022/11/20 00:00:24;;;;;;;71.38;11.85;;;;;;;;;;5114817;28;20293;-78
2022/11/20 00:02:53;;;;;;;71.85;11.38;;;;;;;;;;5115378;28;20296;-78
2022/11/20 00:05:20;;;;;;;69.03;12.60;;;;;;;;;;5115349;28;20236;-78
2022/11/20 00:07:48;;;;;;;69.38;11.10;;;;;;;;;;5115039;28;20255;-78
2022/11/20 00:10:15;;;;;;;73.25;12.70;;;;;;;;;;5113658;28;20310;-78
2022/11/20 00:12:42;;;;;;;71.68;13.30;;;;;;;;;;5113911;28;20241;-78
2022/11/20 00:15:10;;;;;;;71.72;12.80;;;;;;;;;;5115296;28;20665;-78
2022/11/20 00:17:37;;;;;;;71.75;11.75;;;;;;;;;;5115009;28;20242;-78
2022/11/20 00:20:06;;;;;;;71.85;12.45;;;;;;;;;;5114135;28;20642;-78
2022/11/20 00:22:33;;;;;;;73.10;13.35;;;;;;;;;;5115082;28;20269;-78
2022/11/20 00:25:00;;;;;;;73.07;12.02;;;;;;;;;;5114852;28;20228;-78
2022/11/20 00:27:27;;;;;;;73.25;13.43;;;;;;;;;;5114257;28;20761;-78
2022/11/20 00:29:55;;;;;;;72.60;13.73;;;;;;;;;;5113557;28;20316;-78
2022/11/20 00:32:22;;;;;;;72.65;14.80;;;;;;;;;;5114229;28;20242;-78
2022/11/20 00:34:49;;;;;;;70.90;12.80;;;;;;;;;;5114315;28;20267;-78
2022/11/20 00:37:18;;;;;;;74.28;13.85;;;;;;;;;;5114086;28;20455;-78
2022/11/20 00:39:45;;;;;;;69.43;12.95;;;;;;;;;;5113458;28;20639;-78
2022/11/20 00:42:12;;;;;;;71.93;13.18;;;;;;;;;;5114062;28;20659;-77
2022/11/20 00:44:39;;;;;;;70.82;13.40;;;;;;;;;;5113893;28;20681;-78
2022/11/20 00:47:06;;;;;;;71.95;12.50;;;;;;;;;;5113714;28;20236;-78
2022/11/20 00:49:33;;;;;;;74.00;13.27;;;;;;;;;;5112971;28;20720;-78
2022/11/20 00:52:01;;;;;;;73.43;14.00;;;;;;;;;;5113403;28;20297;-78
2022/11/20 00:54:29;;;;;;;71.25;13.75;;;;;;;;;;5113575;28;20713;-78
2022/11/20 00:56:56;;;;;;;72.13;12.27;;;;;;;;;;5113931;28;20244;-78
2022/11/20 00:59:23;;;;;;;72.03;13.75;;;;;;;;;;5112783;28;20251;-78
2022/11/20 01:01:51;;;;;;;73.00;12.85;;;;;;;;;;5113369;28;20233;-78
2022/11/20 01:04:18;;;;;;;74.28;13.65;;;;;;;;;;5113225;28;20610;-78
2022/11/20 01:06:45;;;;;;;72.70;13.82;;;;;;;;;;5113492;28;20241;-78
2022/11/20 01:09:13;;;;;;;71.53;12.65;;;;;;;;;;5112448;28;20257;-78
2022/11/20 01:11:43;;;;;;;72.37;13.77;;;;;;;;;;5113283;28;20247;-78
2022/11/20 01:14:12;;;;;;;72.22;13.65;;;;;;;;;;5113260;28;20531;-78
2022/11/20 01:16:40;;;;;;;73.05;13.63;;;;;;;;;;5112976;28;20237;-78
2022/11/20 01:19:09;;;;;;;72.22;13.77;;;;;;;;;;5112493;28;20311;-78
2022/11/20 01:21:37;;;;;;;72.97;13.18;;;;;;;;;;5113276;28;20231;-78
2022/11/20 01:24:05;;;;;;;76.07;14.02;;;;;;;;;;5112874;28;20288;-78
2022/11/20 01:26:33;;;;;;;74.68;14.15;;;;;;;;;;5113009;28;20295;-78
2022/11/20 01:29:02;;;;;;;75.18;14.10;;;;;;;;;;5112240;28;20315;-78
2022/11/20 01:31:30;;;;;;;83.32;19.20;;;;;;;;;;5112784;28;20209;-77
2022/11/20 01:33:57;;;;;;;82.72;15.95;;;;;;;;;;5112651;28;20316;-77
2022/11/20 01:36:26;;;;;;;75.38;13.63;;;;;;;;;;5113144;28;20312;-78
2022/11/20 01:38:53;;;;;;;72.50;12.85;;;;;;;;;;5112056;28;20333;-78
2022/11/20 01:44:04;;;;;;;73.17;15.33;;;;;;;;;;5111680;28;20196;-78
2022/11/20 01:46:32;;;;;;;76.40;14.48;;;;;;;;;;5112701;28;20530;-77
2022/11/20 01:49:01;;;;;;;75.60;13.98;;;;;;;;;;5112135;28;20315;-78
2022/11/20 01:51:31;;;;;;;72.50;13.88;;;;;;;;;;5112657;28;20298;-78
2022/11/20 01:54:00;;;;;;;73.88;13.35;;;;;;;;;;5112561;28;20226;-78
2022/11/20 01:56:28;;;;;;;70.78;13.20;;;;;;;;;;5112566;28;20613;-78
2022/11/20 01:58:57;;;;;;;73.32;14.15;;;;;;;;;;5111583;28;20265;-78
2022/11/20 02:01:25;;;;;;;72.45;11.65;;;;;;;;;;5112723;28;20527;-78
2022/11/20 02:03:53;;;;;;;69.97;12.55;;;;;;;;;;5112422;28;20232;-78
2022/11/20 02:06:23;;;;;;;74.13;15.05;;;;;;;;;;5112501;28;20208;-77
2022/11/20 02:08:50;;;;;;;74.50;13.98;;;;;;;;;;5111712;28;20332;-78
2022/11/20 02:11:17;;;;;;;73.15;14.57;;;;;;;;;;5112370;28;20297;-78
2022/11/20 02:13:43;;;;;;;75.35;14.57;;;;;;;;;;5112446;28;20750;-78
2022/11/20 02:16:13;;;;;;;74.55;13.75;;;;;;;;;;5112447;28;20200;-78
2022/11/20 02:18:41;;;;;;;71.57;13.23;;;;;;;;;;5111518;28;20260;-77
2022/11/20 02:21:11;;;;;;;72.30;13.65;;;;;;;;;;5112363;28;20707;-78
2022/11/20 02:23:39;;;;;;;74.63;13.30;;;;;;;;;;5112281;28;20204;-78
2022/11/20 02:26:10;;;;;;;74.28;14.70;;;;;;;;;;5112452;28;20273;-78
2022/11/20 02:28:38;;;;;;;73.00;13.13;;;;;;;;;;5111364;28;20261;-78
2022/11/20 02:31:05;;;;;;;71.63;13.90;;;;;;;;;;5112155;28;20244;-78
2022/11/20 02:33:32;;;;;;;73.82;15.45;;;;;;;;;;5112333;28;20243;-78
2022/11/20 02:35:59;;;;;;;75.57;15.10;;;;;;;;;;5114018;28;20320;-78
2022/11/20 02:38:26;;;;;;;76.72;15.10;;;;;;;;;;5116333;28;20264;-77
2022/11/20 02:40:54;;;;;;;74.40;14.23;;;;;;;;;;5115992;28;20295;-78
2022/11/20 02:43:22;;;;;;;71.57;13.93;;;;;;;;;;5116222;28;20209;-78
2022/11/20 02:45:49;;;;;;;73.57;15.30;;;;;;;;;;5116318;28;20487;-78
2022/11/20 02:48:16;;;;;;;73.57;14.90;;;;;;;;;;5112671;28;20285;-78
2022/11/20 02:50:43;;;;;;;74.97;14.57;;;;;;;;;;5115423;28;20297;-78
2022/11/20 02:53:11;;;;;;;72.13;14.70;;;;;;;;;;5116132;28;20202;-78
2022/11/20 02:55:38;;;;;;;73.28;14.77;;;;;;;;;;5115853;28;20577;-78
2022/11/20 02:58:05;;;;;;;73.90;14.10;;;;;;;;;;5115407;28;20333;-78
2022/11/20 03:00:35;;;;;;;73.68;14.70;;;;;;;;;;5115344;28;20268;-78
2022/11/20 03:03:02;;;;;;;71.87;13.53;;;;;;;;;;5115770;28;20296;-78
2022/11/20 03:05:29;;;;;;;77.93;14.80;;;;;;;;;;5115939;28;20482;-78
2022/11/20 03:07:56;;;;;;;77.80;15.68;;;;;;;;;;5115683;28;20476;-78
2022/11/20 03:10:23;;;;;;;72.68;14.38;;;;;;;;;;5114871;28;20206;-78
2022/11/20 03:12:54;;;;;;;75.03;15.50;;;;;;;;;;5115716;28;20204;-78
2022/11/20 03:15:21;;;;;;;75.03;15.68;;;;;;;;;;5115586;28;20236;-78
2022/11/20 03:17:50;;;;;;;71.22;15.05;;;;;;;;;;5115536;28;20298;-77
2022/11/20 03:20:17;;;;;;;74.13;15.13;;;;;;;;;;5114999;28;20251;-77
2022/11/20 03:22:44;;;;;;;75.60;14.50;;;;;;;;;;5115745;28;20233;-78
2022/11/20 03:25:11;;;;;;;73.72;15.05;;;;;;;;;;5115499;28;20237;-77
2022/11/20 03:27:38;;;;;;;72.25;12.82;;;;;;;;;;5115614;28;20251;-78
2022/11/20 03:30:06;;;;;;;74.15;14.63;;;;;;;;;;5114437;28;20239;-78
2022/11/20 03:32:33;;;;;;;69.30;12.10;;;;;;;;;;5115106;28;20238;-78
2022/11/20 03:35:02;;;;;;;65.50;9.20;;;;;;;;;;5114891;28;20664;-77
2022/11/20 03:37:29;;;;;;;64.47;9.25;;;;;;;;;;5114698;28;20234;-77
2022/11/20 03:39:56;;;;;;;62.55;7.82;;;;;;;;;;5114088;28;20230;-77
2022/11/20 03:45:08;;;;;;;63.40;7.93;;;;;;;;;;5114712;28;20225;-77
2022/11/20 03:47:36;;;;;;;61.57;6.80;;;;;;;;;;5114102;28;20458;-77
2022/11/20 03:50:04;;;;;;;62.33;6.78;;;;;;;;;;5113521;28;20452;-77
2022/11/20 03:52:32;;;;;;;61.40;7.25;;;;;;;;;;5114547;28;20213;-76
2022/11/20 03:54:59;;;;;;;63.10;6.68;;;;;;;;;;5114396;28;20315;-76
2022/11/20 03:57:26;;;;;;;61.70;7.10;;;;;;;;;;5114122;28;20258;-76
2022/11/20 03:59:53;;;;;;;62.00;6.67;;;;;;;;;;5113526;28;20551;-77
2022/11/20 04:02:20;;;;;;;60.40;5.80;;;;;;;;;;5114263;28;20551;-76
2022/11/20 04:04:47;;;;;;;60.25;6.05;;;;;;;;;;5114098;28;20450;-76
2022/11/20 04:07:16;;;;;;;62.27;6.40;;;;;;;;;;5114302;28;20213;-76
2022/11/20 04:09:43;;;;;;;61.70;5.90;;;;;;;;;;5113315;28;20554;-76
2022/11/20 04:12:10;;;;;;;60.80;5.85;;;;;;;;;;5114055;28;20886;-76
2022/11/20 04:14:38;;;;;;;62.90;6.13;;;;;;;;;;5113908;28;20224;-76
2022/11/20 04:17:05;;;;;;;61.13;5.88;;;;;;;;;;5113745;28;20456;-76
2022/11/20 04:19:32;;;;;;;63.40;5.82;;;;;;;;;;5113376;28;20659;-76
2022/11/20 04:22:00;;;;;;;60.83;5.72;;;;;;;;;;5114020;28;20261;-76
2022/11/20 04:24:29;;;;;;;60.28;5.47;;;;;;;;;;5113887;28;20635;-76
2022/11/20 04:26:56;;;;;;;59.67;5.20;;;;;;;;;;5113660;28;20293;-76
2022/11/20 04:29:23;;;;;;;59.60;5.17;;;;;;;;;;5112753;28;20313;-75
2022/11/20 04:31:50;;;;;;;60.00;5.37;;;;;;;;;;5113539;28;20456;-76
2022/11/20 04:34:17;;;;;;;59.67;5.57;;;;;;;;;;5113834;28;20873;-76
2022/11/20 04:36:45;;;;;;;59.97;5.35;;;;;;;;;;5113663;28;20495;-76
2022/11/20 04:39:15;;;;;;;59.57;5.00;;;;;;;;;;5112885;28;20262;-75
2022/11/20 04:41:44;;;;;;;60.85;5.15;;;;;;;;;;5113476;28;20763;-76
2022/11/20 04:44:11;;;;;;;61.30;5.30;;;;;;;;;;5113394;28;20328;-75
2022/11/20 04:46:40;;;;;;;60.53;5.50;;;;;;;;;;5113734;28;20859;-75
2022/11/20 04:49:07;;;;;;;61.10;5.30;;;;;;;;;;5112662;28;20433;-75
2022/11/20 04:51:34;;;;;;;59.37;5.03;;;;;;;;;;5113348;28;20827;-76
2022/11/20 04:54:01;;;;;;;60.67;5.30;;;;;;;;;;5113300;28;20487;-76
2022/11/20 04:56:28;;;;;;;62.73;4.93;;;;;;;;;;5113042;28;20575;-76
2022/11/20 04:58:57;;;;;;;61.00;5.20;;;;;;;;;;5111666;28;20475;-76
2022/11/20 05:01:25;;;;;;;59.28;4.63;;;;;;;;;;5113228;28;20477;-75
2022/11/20 05:03:53;;;;;;;63.30;5.30;;;;;;;;;;5113356;28;20297;-75
2022/11/20 05:06:20;;;;;;;60.47;5.70;;;;;;;;;;5113163;28;20236;-76
2022/11/20 05:08:48;;;;;;;59.90;4.80;;;;;;;;;;5112174;28;20564;-75
2022/11/20 05:11:16;;;;;;;61.87;5.60;;;;;;;;;;5112740;28;20538;-75
2022/11/20 05:13:44;;;;;;;61.00;6.17;;;;;;;;;;5113065;28;20488;-75
2022/11/20 05:16:13;;;;;;;58.67;5.40;;;;;;;;;;5112856;28;20480;-75
2022/11/20 05:18:41;;;;;;;59.97;5.20;;;;;;;;;;5112367;28;20886;-75
2022/11/20 05:21:08;;;;;;;59.70;5.60;;;;;;;;;;5112687;28;20453;-75
2022/11/20 05:23:35;;;;;;;59.97;5.77;;;;;;;;;;5112761;28;20615;-76
2022/11/20 05:26:02;;;;;;;60.30;5.40;;;;;;;;;;5112450;28;20484;-76
2022/11/20 05:28:31;;;;;;;60.90;6.20;;;;;;;;;;5112386;28;20500;-76
2022/11/20 05:31:05;;;;;;;59.30;5.47;;;;;;;;;;5112474;28;20453;-76
2022/11/20 05:33:33;;;;;;;60.90;5.40;;;;;;;;;;5112976;28;20539;-76
2022/11/20 05:36:00;;;;;;;61.00;5.90;;;;;;;;;;5112631;28;20519;-75
2022/11/20 05:38:28;;;;;;;59.70;5.63;;;;;;;;;;5112090;28;20508;-76
2022/11/20 05:40:55;;;;;;;62.53;5.70;;;;;;;;;;5112358;28;20483;-76
2022/11/20 05:43:22;;;;;;;61.80;5.60;;;;;;;;;;5112525;28;20456;-76
2022/11/20 05:45:58;;;;;;;59.00;5.13;;;;;;;;;;5112638;28;20871;-76
2022/11/20 05:48:25;;;;;;;60.47;6.03;;;;;;;;;;5112166;28;20511;-76
2022/11/20 05:50:54;;;;;;;61.50;6.37;;;;;;;;;;5111474;28;20544;-76
2022/11/20 05:53:21;;;;;;;59.70;5.07;;;;;;;;;;5112252;28;20997;-76
2022/11/20 05:55:48;;;;;;;59.87;5.17;;;;;;;;;;5112098;28;20578;-75
2022/11/20 05:58:15;;;;;;;61.07;5.73;;;;;;;;;;5112090;28;20490;-76
2022/11/20 06:00:42;;;;;;;59.40;5.00;;;;;;;;;;5111832;28;20448;-75
2022/11/20 06:03:09;;;;;;;59.80;5.45;;;;;;;;;;5112263;28;20628;-76
2022/11/20 06:05:36;;;;;;;60.50;4.75;;;;;;;;;;5112167;28;20644;-76
2022/11/20 06:08:05;;;;;;;59.63;4.70;;;;;;;;;;5112156;28;20737;-76
2022/11/20 06:10:32;;;;;;;59.80;4.88;;;;;;;;;;5113201;28;20535;-76
2022/11/20 06:13:00;;;;;;;59.37;4.70;;;;;;;;;;5116821;28;20289;-76
2022/11/20 06:15:27;;;;;;;59.37;5.37;;;;;;;;;;5116277;28;20490;-76
2022/11/20 06:17:55;;;;;;;60.10;5.23;;;;;;;;;;5116305;28;20517;-76
2022/11/20 06:20:22;;;;;;;60.15;5.15;;;;;;;;;;5116299;28;20476;-76
2022/11/20 06:22:49;;;;;;;59.20;4.97;;;;;;;;;;5116499;28;20237;-76
2022/11/20 06:25:18;;;;;;;60.17;4.80;;;;;;;;;;5116442;28;20493;-76
2022/11/20 06:27:45;;;;;;;60.80;5.30;;;;;;;;;;5116505;28;20236;-76
2022/11/20 06:30:13;;;;;;;60.07;5.10;;;;;;;;;;5115893;28;20881;-76
2022/11/20 06:32:40;;;;;;;60.40;4.97;;;;;;;;;;5116363;28;20494;-76
2022/11/20 06:35:07;;;;;;;61.67;5.10;;;;;;;;;;5116179;28;20237;-76
2022/11/20 06:37:34;;;;;;;60.53;5.15;;;;;;;;;;5116146;28;20535;-76
2022/11/20 06:40:01;;;;;;;59.37;4.40;;;;;;;;;;5115402;28;20748;-76
2022/11/20 06:42:30;;;;;;;61.08;4.50;;;;;;;;;;5115859;28;20530;-76
2022/11/20 06:44:57;;;;;;;60.22;4.78;;;;;;;;;;5115719;28;20299;-76
2022/11/20 06:47:24;;;;;;;59.13;4.72;;;;;;;;;;5115873;28;20212;-76
2022/11/20 06:49:51;;;;;;;59.30;4.83;;;;;;;;;;5115309;28;20313;-76
2022/11/20 06:52:18;;;;;;;60.37;5.50;;;;;;;;;;5115712;28;20451;-76
2022/11/20 06:54:46;;;;;;;62.03;5.10;;;;;;;;;;5115637;28;20447;-76
2022/11/20 06:57:13;;;;;;;61.50;4.97;;;;;;;;;;5115450;28;20273;-76
2022/11/20 06:59:41;;;;;;;59.75;4.82;;;;;;;;;;5114979;28;20717;-76
2022/11/20 07:02:10;;;;;;;59.20;4.50;;;;;;;;;;5115627;28;20302;-76
2022/11/20 07:04:37;;;;;;;59.37;4.90;;;;;;;;;;5115899;28;20297;-76
2022/11/20 07:07:05;;;;;;;59.37;4.70;;;;;;;;;;5115515;28;20473;-76
2022/11/20 07:09:33;;;;;;;61.33;5.60;;;;;;;;;;5115039;28;20472;-76
2022/11/20 07:12:00;;;;;;;59.80;4.43;;;;;;;;;;5115149;28;20892;-76
2022/11/20 07:14:27;;;;;;;59.60;4.65;;;;;;;;;;5115486;28;20502;-76
2022/11/20 07:16:56;;;;;;;59.38;4.25;;;;;;;;;;5115380;28;20259;-76
2022/11/20 07:19:23;;;;;;;59.80;4.63;;;;;;;;;;5102414;28;20229;-76
2022/11/20 07:21:50;;;;;;;60.10;4.47;;;;;;;;;;5094319;28;20235;-76
2022/11/20 07:24:17;;;;;;;61.90;5.40;;;;;;;;;;5094583;28;20458;-76
2022/11/20 07:26:47;;;;;;;58.87;4.53;;;;;;;;;;5094482;28;20973;-76
2022/11/20 07:29:14;;;;;;;58.90;4.47;;;;;;;;;;5094198;28;20478;-76
2022/11/20 07:31:42;;;;;;;59.60;4.30;;;;;;;;;;5094802;28;20548;-75
2022/11/20 07:34:10;;;;;;;59.30;4.90;;;;;;;;;;5094645;28;20694;-76
2022/11/20 07:36:37;;;;;;;61.33;4.37;;;;;;;;;;5094271;28;20573;-76
2022/11/20 07:39:04;;;;;;;59.40;4.70;;;;;;;;;;5093888;28;20584;-76
2022/11/20 07:41:32;;;;;;;62.90;4.80;;;;;;;;;;5094499;28;20541;-76
2022/11/20 07:43:59;;;;;;;59.17;4.73;;;;;;;;;;5094404;28;20480;-76
2022/11/20 07:46:26;;;;;;;59.57;4.40;;;;;;;;;;5094632;28;20528;-76
2022/11/20 07:48:53;;;;;;;60.57;5.00;;;;;;;;;;5094025;28;20561;-76
2022/11/20 07:51:22;;;;;;;60.07;4.57;;;;;;;;;;5094254;28;20476;-76
2022/11/20 07:53:49;;;;;;;60.37;4.93;;;;;;;;;;5094144;28;20482;-76
2022/11/20 07:56:16;;;;;;;59.28;4.40;;;;;;;;;;5094065;28;20480;-76
2022/11/20 07:58:43;;;;;;;59.57;4.60;;;;;;;;;;5093610;28;20322;-76
2022/11/20 08:01:10;;;;;;;59.00;4.60;;;;;;;;;;5093955;28;20884;-76
2022/11/20 08:03:38;;;;;;;59.97;4.53;;;;;;;;;;5093925;28;20896;-76
2022/11/20 08:06:05;;;;;;;59.77;4.80;;;;;;;;;;5093713;28;20446;-76
2022/11/20 08:08:34;;;;;;;59.57;4.53;;;;;;;;;;5093849;28;20504;-76
2022/11/20 08:16:27;;;;;;;59.50;4.50;;;;;;;;;;5093451;28;20492;-76
2022/11/20 08:18:54;;;;;;;60.37;4.33;;;;;;;;;;5093401;28;20875;-76
2022/11/20 08:21:21;;;;;;;60.10;4.47;;;;;;;;;;5093518;28;20961;-77
2022/11/20 08:23:49;;;;;;;59.07;4.70;;;;;;;;;;5093362;28;20453;-77
2022/11/20 08:26:17;;;;;;;59.20;4.70;;;;;;;;;;5093340;28;20990;-76
2022/11/20 08:28:45;;;;;;;58.87;4.13;;;;;;;;;;5093239;28;20548;-76
2022/11/20 08:31:12;;;;;;;59.97;4.77;;;;;;;;;;5093223;28;20515;-76
2022/11/20 08:33:39;;;;;;;59.53;4.37;;;;;;;;;;5092477;28;20536;-76
2022/11/20 08:36:07;;;;;;;61.37;4.60;;;;;;;;;;5093620;28;20492;-76
2022/11/20 08:38:34;;;;;;;59.33;4.60;;;;;;;;;;5092954;28;20470;-76
2022/11/20 08:43:49;;;;;;;60.10;4.67;;;;;;;;;;5093645;28;20488;-76
2022/11/20 08:46:16;;;;;;;58.70;4.63;;;;;;;;;;5093501;28;20481;-76
2022/11/20 08:48:43;;;;;;;60.57;4.67;;;;;;;;;;5092697;28;20545;-76
2022/11/20 08:51:11;;;;;;;58.40;4.00;;;;;;;;;;5093014;28;20537;-76
2022/11/20 08:53:38;;;;;;;59.63;4.47;;;;;;;;;;5093183;28;20528;-77
2022/11/20 08:56:07;;;;;;;58.40;4.07;;;;;;;;;;5093308;28;20588;-78
2022/11/20 08:58:34;;;;;;;59.00;4.40;;;;;;;;;;5092542;28;21049;-77
2022/11/20 09:01:01;;;;;;;58.40;3.83;;;;;;;;;;5092984;28;20492;-77
2022/11/20 09:03:29;;;;;;;58.67;4.10;;;;;;;;;;5107365;28;20486;-76
2022/11/20 09:05:59;;;;;;;58.60;4.00;;;;;;;;;;5113348;28;20484;-78
2022/11/20 09:08:26;;;;;;;58.40;4.47;;;;;;;;;;5113973;28;20996;-78
2022/11/20 09:10:53;;;;;;;58.70;3.93;;;;;;;;;;5113360;28;20488;-78
2022/11/20 09:13:22;;;;;;;59.07;4.20;;;;;;;;;;5113420;28;20481;-78
2022/11/20 09:15:54;;;;;;;58.50;3.40;;;;;;;;;;5113287;28;20550;-78
2022/11/20 09:18:21;;;;;;;59.00;4.10;;;;;;;;;;5114356;28;20501;-79
2022/11/20 09:20:48;;;;;;;58.70;3.77;;;;;;;;;;5114158;28;20537;-78
2022/11/20 09:23:15;;;;;;;58.67;3.50;;;;;;;;;;5113555;28;20456;-78
2022/11/20 09:25:42;;;;;;;58.37;3.13;;;;;;;;;;5113797;28;20589;-77
2022/11/20 09:28:10;;;;;;;59.70;3.50;;;;;;;;;;5113854;28;20548;-77
2022/11/20 09:30:38;;;;;;;59.37;3.33;;;;;;;;;;5113144;28;20504;-77
2022/11/20 09:33:06;;;;;;;59.17;3.40;;;;;;;;;;5120589;28;20537;-77
2022/11/20 09:35:33;;;;;;;58.07;3.40;;;;;;;;;;5113899;28;20445;-78
2022/11/20 09:38:05;;;;;;;58.77;3.40;;;;;;;;;;5113827;28;20504;-77
2022/11/20 09:40:32;;;;;;;60.07;3.70;;;;;;;;;;5113347;28;20842;-77
2022/11/20 09:43:03;;;;;;;56.93;2.80;;;;;;;;;;5113491;28;20477;-78
2022/11/20 09:45:48;;;;;;;58.10;2.80;;;;;;;;;;5113966;28;20456;-78
2022/11/20 09:48:34;;;;;;;57.87;3.20;;;;;;;;;;5096502;28;20485;-77
2022/11/20 09:51:07;;;;;;;58.00;2.93;;;;;;;;;;5113678;28;20980;-77
2022/11/20 09:53:41;;;;;;;58.67;2.70;;;;;;;;;;5113316;28;20457;-78
2022/11/20 09:56:10;;;;;;;58.30;3.23;;;;;;;;;;5113202;28;20516;-78
2022/11/20 09:58:41;;;;;;;59.67;3.70;;;;;;;;;;5111892;28;20508;-78
2022/11/20 10:01:11;;;;;;;58.27;2.97;;;;;;;;;;5113952;28;20809;-77
2022/11/20 10:03:42;;;;;;;57.37;3.20;;;;;;;;;;5113116;28;20453;-77
2022/11/20 10:06:12;;;;;;;58.77;3.60;;;;;;;;;;5113065;28;20484;-78
2022/11/20 10:08:42;;;;;;;58.37;3.47;;;;;;;;;;5112426;28;20487;-78
2022/11/20 10:11:15;;;;;;;59.20;3.80;;;;;;;;;;5113388;28;20453;-77
2022/11/20 10:13:47;;;;;;;57.97;3.50;;;;;;;;;;5113664;28;20448;-77
2022/11/20 10:16:21;;;;;;;58.47;3.40;;;;;;;;;;5113433;28;20488;-77
2022/11/20 10:18:56;;;;;;;58.70;3.40;;;;;;;;;;5111355;28;20479;-77
2022/11/20 10:21:26;;;;;;;61.00;3.93;;;;;;;;;;5107687;28;20536;-77
2022/11/20 10:23:59;;;;;;;58.83;3.20;;;;;;;;;;5112803;28;20450;-78
2022/11/20 10:26:32;;;;;;;58.70;3.33;;;;;;;;;;5111764;28;20460;-77
2022/11/20 10:29:09;;;;;;;58.30;3.43;;;;;;;;;;5111336;28;20520;-76
2022/11/20 10:31:37;;;;;;;58.50;3.50;;;;;;;;;;5111860;28;20469;-76
2022/11/20 10:34:08;;;;;;;58.30;3.27;;;;;;;;;;5111909;28;20479;-77
2022/11/20 10:36:36;;;;;;;59.03;3.73;;;;;;;;;;5112119;28;20481;-77
2022/11/20 10:39:07;;;;;;;59.83;4.10;;;;;;;;;;5113615;28;20473;-79
2022/11/20 10:41:36;;;;;;;57.97;3.57;;;;;;;;;;5123316;28;20804;-81
2022/11/20 10:44:05;;;;;;;60.97;3.23;;;;;;;;;;5121211;28;20446;-80
2022/11/20 10:46:37;;;;;;;58.07;3.30;;;;;;;;;;5119901;28;20956;-78
2022/11/20 10:49:13;;;;;;;58.43;3.40;;;;;;;;;;5119191;28;20474;-79
2022/11/20 10:51:45;;;;;;;58.10;3.50;;;;;;;;;;5117404;28;20846;-79
2022/11/20 10:54:16;;;;;;;57.77;3.40;;;;;;;;;;5122083;28;20475;-82
2022/11/20 10:56:47;;;;;;;58.20;3.43;;;;;;;;;;5122137;28;20917;-81
2022/11/20 10:59:27;;;;;;;58.47;3.27;;;;;;;;;;5121223;28;20533;-81
2022/11/20 11:01:54;;;;;;;58.20;3.60;;;;;;;;;;5121066;28;20548;-82
2022/11/20 11:04:31;;;;;;;59.47;3.20;;;;;;;;;;5118105;28;20454;-82
2022/11/20 11:07:02;;;;;;;57.83;3.10;;;;;;;;;;5117694;28;20483;-83
2022/11/20 11:09:34;;;;;;;59.87;3.30;;;;;;;;;;5116110;28;20501;-82
2022/11/20 11:12:01;;;;;;;57.80;3.60;;;;;;;;;;5118767;28;20453;-82
2022/11/20 11:14:28;;;;;;;57.83;3.30;;;;;;;;;;5118571;28;20549;-82
2022/11/20 11:16:56;;;;;;;58.20;3.37;;;;;;;;;;5115088;28;20504;-79
2022/11/20 11:19:24;;;;;;;61.80;3.63;;;;;;;;;;5117837;28;20495;-80
2022/11/20 11:21:54;;;;;;;58.13;3.53;;;;;;;;;;5117708;28;20492;-79
2022/11/20 11:24:23;;;;;;;58.67;4.07;;;;;;;;;;5117660;28;20488;-79
2022/11/20 11:26:55;;;;;;;60.87;3.73;;;;;;;;;;5119188;28;20438;-80
2022/11/20 11:29:23;;;;;;;58.80;3.77;;;;;;;;;;5118518;28;20551;-81
2022/11/20 11:32:20;;;;;;;59.10;3.70;;;;;;;;;;5117837;28;20460;-81
2022/11/20 11:34:59;;;;;;;58.77;3.67;;;;;;;;;;5056080;28;20448;-80
2022/11/20 11:37:30;;;;;;;59.40;3.50;;;;;;;;;;5059443;28;20484;-78
2022/11/20 11:39:57;;;;;;;58.93;3.87;;;;;;;;;;5049424;28;20569;-78
2022/11/20 11:42:24;;;;;;;59.90;3.70;;;;;;;;;;5051797;28;20484;-77
2022/11/20 11:45:07;;;;;;;58.37;3.43;;;;;;;;;;5051603;28;21000;-77
2022/11/20 11:47:36;;;;;;;58.40;3.20;;;;;;;;;;5051986;28;20444;-77
2022/11/20 11:50:15;;;;;;;58.47;3.13;;;;;;;;;;5050963;28;20455;-77
2022/11/20 11:52:46;;;;;;;58.27;3.03;;;;;;;;;;5051677;28;20455;-76
2022/11/20 11:55:15;;;;;;;59.70;3.50;;;;;;;;;;5051709;28;20863;-77
2022/11/20 11:57:49;;;;;;;59.67;3.77;;;;;;;;;;5051309;28;20653;-77
2022/11/20 12:00:17;;;;;;;59.80;3.40;;;;;;;;;;5050618;28;20906;-77
2022/11/20 12:02:50;;;;;;;58.30;3.40;;;;;;;;;;5051636;28;20448;-76
2022/11/20 12:05:20;;;;;;;58.70;3.30;;;;;;;;;;5051521;28;20484;-77
2022/11/20 12:07:49;;;;;;;59.10;3.70;;;;;;;;;;5051484;28;20527;-77
2022/11/20 12:10:18;;;;;;;58.60;3.40;;;;;;;;;;5050692;28;20460;-77
2022/11/20 12:12:47;;;;;;;58.47;3.60;;;;;;;;;;5051266;28;20877;-77
2022/11/20 12:15:17;;;;;;;59.87;3.93;;;;;;;;;;5051378;28;20535;-77
2022/11/20 12:17:44;;;;;;;59.10;3.60;;;;;;;;;;5051187;28;20525;-76
2022/11/20 12:20:14;;;;;;;60.13;3.63;;;;;;;;;;5050368;28;20527;-77
2022/11/20 12:22:46;;;;;;;58.30;3.50;;;;;;;;;;5051006;28;20445;-76
2022/11/20 12:25:18;;;;;;;58.40;3.70;;;;;;;;;;5088466;28;20590;-77
2022/11/20 12:27:51;;;;;;;60.00;3.77;;;;;;;;;;5113732;28;20481;-77
2022/11/20 12:30:20;;;;;;;60.20;3.70;;;;;;;;;;5112878;28;20445;-77
2022/11/20 12:32:57;;;;;;;60.17;4.10;;;;;;;;;;5113824;28;20581;-77
2022/11/20 12:35:33;;;;;;;59.17;3.30;;;;;;;;;;5113604;28;20480;-77
2022/11/20 12:38:08;;;;;;;61.07;4.20;;;;;;;;;;5113403;28;20484;-77
2022/11/20 12:40:44;;;;;;;58.83;3.70;;;;;;;;;;5113135;28;20482;-78
2022/11/20 12:46:10;;;;;;;58.43;3.47;;;;;;;;;;5113476;28;20417;-77
2022/11/20 12:48:42;;;;;;;58.90;3.23;;;;;;;;;;5112832;28;20467;-77
2022/11/20 12:51:17;;;;;;;58.80;3.07;;;;;;;;;;5113520;28;20445;-76
2022/11/20 12:53:51;;;;;;;57.97;3.00;;;;;;;;;;5113159;28;20445;-76
2022/11/20 12:56:25;;;;;;;58.20;3.17;;;;;;;;;;5113747;28;20450;-77
2022/11/20 12:59:00;;;;;;;58.80;2.80;;;;;;;;;;5112302;28;21059;-76
2022/11/20 13:01:42;;;;;;;59.63;3.40;;;;;;;;;;5113326;28;20523;-76
2022/11/20 13:04:11;;;;;;;57.90;2.70;;;;;;;;;;5112996;28;20453;-77
2022/11/20 13:06:38;;;;;;;58.60;2.90;;;;;;;;;;5113383;28;20556;-76
2022/11/20 13:09:10;;;;;;;57.57;2.90;;;;;;;;;;5112103;28;20499;-76
2022/11/20 13:11:43;;;;;;;58.00;3.40;;;;;;;;;;5113157;28;20532;-76
2022/11/20 13:14:26;;;;;;;58.77;2.87;;;;;;;;;;5112981;28;20449;-76
2022/11/20 13:16:56;;;;;;;58.63;3.10;;;;;;;;;;5113194;28;20480;-76
2022/11/20 13:19:23;;;;;;;60.07;3.43;;;;;;;;;;5111517;28;20505;-76
2022/11/20 13:21:51;;;;;;;58.70;3.27;;;;;;;;;;5112959;28;20532;-76
2022/11/20 13:24:36;;;;;;;57.97;2.77;;;;;;;;;;5112864;28;20908;-76
2022/11/20 13:27:06;;;;;;;58.47;2.80;;;;;;;;;;5112754;28;20480;-76
2022/11/20 13:29:34;;;;;;;58.57;2.90;;;;;;;;;;5111918;28;20466;-76
2022/11/20 13:32:05;;;;;;;59.30;3.07;;;;;;;;;;5112864;28;20452;-76
2022/11/20 13:34:32;;;;;;;60.67;3.60;;;;;;;;;;5112626;28;20481;-76
2022/11/20 13:37:03;;;;;;;59.87;3.33;;;;;;;;;;5112351;28;20568;-76
2022/11/20 13:39:32;;;;;;;58.30;3.07;;;;;;;;;;5112288;28;20861;-76
2022/11/20 13:42:00;;;;;;;58.17;3.10;;;;;;;;;;5112798;28;20524;-76
2022/11/20 13:44:30;;;;;;;63.70;3.20;;;;;;;;;;5112390;28;20973;-76
2022/11/20 13:46:57;;;;;;;59.73;3.03;;;;;;;;;;5112231;28;20481;-76
2022/11/20 13:49:27;;;;;;;59.13;2.90;;;;;;;;;;5111597;28;20569;-76
2022/11/20 13:51:59;;;;;;;60.20;3.13;;;;;;;;;;5112795;28;20536;-76
2022/11/20 13:54:43;;;;;;;61.90;4.50;;;;;;;;;;5112702;28;20544;-76
2022/11/20 13:57:19;;;;;;;72.27;13.90;;;;;;;;;;5112235;28;20473;-76
2022/11/20 13:59:54;;;;;;;70.07;12.10;;;;;;;;;;5111371;28;20529;-76
2022/11/20 14:02:23;;;;;;;59.10;3.07;;;;;;;;;;5112955;28;20532;-75
2022/11/20 14:04:51;;;;;;;59.20;3.97;;;;;;;;;;5112216;28;20532;-75
2022/11/20 14:07:19;;;;;;;60.30;4.93;;;;;;;;;;5112403;28;20474;-75
2022/11/20 14:09:53;;;;;;;59.47;2.67;;;;;;;;;;5111542;28;20461;-75
2022/11/20 14:12:21;;;;;;;60.17;3.50;;;;;;;;;;5112125;28;20452;-75
2022/11/20 14:14:52;;;;;;;61.07;3.97;;;;;;;;;;5112106;28;20821;-74
2022/11/20 14:17:20;;;;;;;59.57;2.80;;;;;;;;;;5111918;28;20894;-75
2022/11/20 14:19:48;;;;;;;60.10;5.50;;;;;;;;;;5111672;28;20472;-75
2022/11/20 14:22:20;;;;;;;58.30;3.70;;;;;;;;;;5112120;28;20453;-74
2022/11/20 14:24:47;;;;;;;57.33;3.17;;;;;;;;;;5112029;28;20477;-74
2022/11/20 14:27:15;;;;;;;57.67;2.87;;;;;;;;;;5112125;28;20448;-74
2022/11/20 14:29:43;;;;;;;62.33;4.57;;;;;;;;;;5111148;28;20511;-74
2022/11/20 14:32:12;;;;;;;58.30;3.10;;;;;;;;;;5114434;28;20532;-75
2022/11/20 14:34:41;;;;;;;58.07;3.17;;;;;;;;;;5115935;28;20484;-74
2022/11/20 14:37:13;;;;;;;59.63;4.00;;;;;;;;;;5115883;28;20456;-74
2022/11/20 14:39:42;;;;;;;59.10;3.93;;;;;;;;;;5115190;28;20549;-74
2022/11/20 14:42:16;;;;;;;59.90;3.93;;;;;;;;;;5115642;28;20540;-74
2022/11/20 14:44:45;;;;;;;58.10;3.17;;;;;;;;;;5115953;28;20441;-75
2022/11/20 14:47:14;;;;;;;62.20;3.90;;;;;;;;;;5115844;28;20511;-74
2022/11/20 14:49:42;;;;;;;58.80;3.27;;;;;;;;;;5115235;28;20464;-74
2022/11/20 14:52:14;;;;;;;59.00;3.43;;;;;;;;;;5115569;28;20480;-74